createdAt,value
2023-05-06T00:00:05.689Z,99725.56
2023-05-06T00:02:33.754Z,99738.72
2023-05-06T00:05:03.335Z,99729.63
2023-05-06T00:07:31.312Z,99741.22
2023-05-06T00:10:00.621Z,99739.78
2023-05-06T00:12:28.686Z,99735.88
2023-05-06T00:14:56.552Z,99745.38
2023-05-06T00:17:24.490Z,99742.41
2023-05-06T00:19:52.476Z,99733.84
2023-05-06T00:22:20.459Z,99730.81
2023-05-06T00:24:48.412Z,99734.00
2023-05-06T00:27:17.761Z,99727.97
2023-05-06T00:29:46.036Z,99726.47
2023-05-06T00:32:13.941Z,99731.75
2023-05-06T00:34:41.869Z,99725.31
2023-05-06T00:37:09.845Z,99726.53
2023-05-06T00:39:37.853Z,99741.28
2023-05-06T00:42:06.017Z,99727.03
2023-05-06T00:44:35.717Z,99733.16
2023-05-06T00:47:03.718Z,99729.53
2023-05-06T00:49:31.932Z,99740.59
2023-05-06T00:52:01.327Z,99732.25
2023-05-06T00:54:29.957Z,99741.38
2023-05-06T00:56:58.017Z,99736.94
2023-05-06T00:59:25.886Z,99736.41
2023-05-06T01:01:55.139Z,99733.19
2023-05-06T01:04:24.097Z,99731.78
2023-05-06T01:06:59.764Z,99739.88
2023-05-06T01:09:37.567Z,99739.19
2023-05-06T01:12:11.191Z,99733.94
2023-05-06T01:14:48.060Z,99731.50
2023-05-06T01:17:19.783Z,99733.22
2023-05-06T01:19:50.417Z,99732.44
2023-05-06T01:22:19.526Z,99725.50
2023-05-06T01:24:48.870Z,99728.38
2023-05-06T01:27:18.321Z,99732.38
2023-05-06T01:29:48.371Z,99725.41
2023-05-06T01:32:32.313Z,99728.78
2023-05-06T01:35:07.621Z,99725.22
2023-05-06T01:37:43.109Z,99723.50
2023-05-06T01:40:13.815Z,99719.91
2023-05-06T01:42:42.382Z,99720.88
2023-05-06T01:45:12.640Z,99723.09
2023-05-06T01:47:42.662Z,99708.31
2023-05-06T01:50:11.554Z,99712.72
2023-05-06T01:52:39.566Z,99715.09
2023-05-06T01:55:08.859Z,99709.28
2023-05-06T01:57:38.547Z,99709.47
2023-05-06T02:00:07.805Z,99707.91
2023-05-06T02:02:35.798Z,99711.78
2023-05-06T02:05:04.112Z,99705.41
2023-05-06T02:07:32.028Z,99708.88
2023-05-06T02:09:59.933Z,99709.84
2023-05-06T02:12:27.822Z,99713.84
2023-05-06T02:14:57.597Z,99708.88
2023-05-06T02:17:25.477Z,99710.28
2023-05-06T02:19:53.360Z,99694.22
2023-05-06T02:22:21.305Z,99710.94
2023-05-06T02:24:49.198Z,99700.03
2023-05-06T02:27:17.144Z,99706.91
2023-05-06T02:29:45.132Z,99703.72
2023-05-06T02:32:14.376Z,99707.63
2023-05-06T02:34:42.368Z,99699.91
2023-05-06T02:37:10.363Z,99707.63
2023-05-06T02:39:38.236Z,99706.81
2023-05-06T02:42:06.497Z,99711.50
2023-05-06T02:44:34.571Z,99708.63
2023-05-06T02:47:02.522Z,99709.59
2023-05-06T02:49:31.822Z,99707.91
2023-05-06T02:51:59.743Z,99705.56
2023-05-06T02:54:28.386Z,99704.97
2023-05-06T02:56:56.379Z,99698.84
2023-05-06T02:59:24.754Z,99709.69
2023-05-06T03:01:52.646Z,99698.94
2023-05-06T03:04:21.324Z,99708.31
2023-05-06T03:06:50.565Z,99701.97
2023-05-06T03:09:18.467Z,99705.84
2023-05-06T03:11:46.378Z,99711.75
2023-05-06T03:14:14.351Z,99713.56
2023-05-06T03:16:42.329Z,99708.31
2023-05-06T03:19:10.185Z,99711.50
2023-05-06T03:21:38.348Z,99711.13
2023-05-06T03:24:07.959Z,99717.63
2023-05-06T03:26:35.941Z,99720.25
2023-05-06T03:29:03.880Z,99718.31
2023-05-06T03:31:32.135Z,99724.66
2023-05-06T03:34:00.151Z,99733.00
2023-05-06T03:36:28.123Z,99735.75
2023-05-06T03:38:56.232Z,99738.50
2023-05-06T03:41:25.749Z,99738.78
2023-05-06T03:43:55.651Z,99740.84
2023-05-06T03:46:23.625Z,99739.69
2023-05-06T03:48:51.471Z,99743.03
2023-05-06T03:51:19.630Z,99744.94
2023-05-06T03:53:47.614Z,99752.31
2023-05-06T03:56:18.157Z,99748.13
2023-05-06T03:58:47.441Z,99756.81
2023-05-06T04:01:17.262Z,99759.63
2023-05-06T04:03:45.817Z,99761.13
2023-05-06T04:06:13.740Z,99764.31
2023-05-06T04:08:41.626Z,99765.84
2023-05-06T04:11:09.943Z,99765.00
2023-05-06T04:13:37.865Z,99759.50
2023-05-06T04:16:07.748Z,99764.22
2023-05-06T04:18:35.638Z,99765.28
2023-05-06T04:21:03.594Z,99767.75
2023-05-06T04:23:31.470Z,99767.44
2023-05-06T04:25:59.459Z,99769.03
2023-05-06T04:28:27.359Z,99772.56
2023-05-06T04:30:55.280Z,99763.44
2023-05-06T04:33:25.630Z,99769.84
2023-05-06T04:35:54.835Z,99760.38
2023-05-06T04:38:25.813Z,99776.63
2023-05-06T04:40:54.056Z,99775.31
2023-05-06T04:43:22.012Z,99772.09
2023-05-06T04:45:50.209Z,99774.25
2023-05-06T04:48:18.928Z,99763.97
2023-05-06T04:50:48.252Z,99775.75
2023-05-06T04:53:17.081Z,99782.25
2023-05-06T04:55:45.066Z,99781.47
2023-05-06T04:58:13.006Z,99784.19
2023-05-06T05:00:41.151Z,99783.44
2023-05-06T05:03:09.074Z,99779.38
2023-05-06T05:05:37.032Z,99783.13
2023-05-06T05:08:06.870Z,99784.44
2023-05-06T05:10:34.783Z,99788.38
2023-05-06T05:13:02.876Z,99783.78
2023-05-06T05:15:30.849Z,99791.25
2023-05-06T05:17:58.826Z,99784.69
2023-05-06T05:20:26.813Z,99772.09
2023-05-06T05:22:55.044Z,99789.50
2023-05-06T05:25:24.712Z,99783.31
2023-05-06T05:27:52.574Z,99788.97
2023-05-06T05:30:20.873Z,99755.41
2023-05-06T05:32:48.854Z,99783.38
2023-05-06T05:35:16.865Z,99789.81
2023-05-06T05:37:44.852Z,99788.69
2023-05-06T05:40:13.383Z,99790.50
2023-05-06T05:42:42.718Z,99783.72
2023-05-06T05:45:11.628Z,99797.28
2023-05-06T05:47:39.679Z,99798.41
2023-05-06T05:50:09.102Z,99777.63
2023-05-06T05:52:37.051Z,99797.50
2023-05-06T05:55:05.436Z,99788.06
2023-05-06T05:57:33.400Z,99791.00
2023-05-06T06:00:03.006Z,99774.09
2023-05-06T06:02:31.005Z,99799.25
2023-05-06T06:04:59.064Z,99785.38
2023-05-06T06:07:27.109Z,99797.69
2023-05-06T06:09:54.993Z,99799.72
2023-05-06T06:12:23.615Z,99800.13
2023-05-06T06:14:51.711Z,99793.63
2023-05-06T06:17:21.005Z,99795.53
2023-05-06T06:19:49.054Z,99790.25
2023-05-06T06:22:16.908Z,99786.13
2023-05-06T06:24:44.933Z,99789.09
2023-05-06T06:27:12.910Z,99794.19
2023-05-06T06:29:40.820Z,99787.38
2023-05-06T06:32:08.783Z,99788.81
2023-05-06T06:34:38.056Z,99793.28
2023-05-06T06:37:07.381Z,99764.09
2023-05-06T06:39:35.958Z,99789.88
2023-05-06T06:42:04.363Z,99786.19
2023-05-06T06:44:32.356Z,99783.19
2023-05-06T06:47:00.317Z,99773.13
2023-05-06T06:49:28.769Z,99781.06
2023-05-06T06:51:58.062Z,99782.41
2023-05-06T06:54:26.183Z,99784.06
2023-05-06T06:56:56.028Z,99785.13
2023-05-06T06:59:24.037Z,99780.34
2023-05-06T07:01:52.366Z,99785.66
2023-05-06T07:04:20.280Z,99786.75
2023-05-06T07:06:48.156Z,99787.63
2023-05-06T07:09:17.409Z,99787.88
2023-05-06T07:11:45.491Z,99785.63
2023-05-06T07:14:14.033Z,99784.69
2023-05-06T07:16:43.914Z,99784.81
2023-05-06T07:19:13.179Z,99783.00
2023-05-06T07:21:41.165Z,99780.41
2023-05-06T07:24:09.812Z,99770.69
2023-05-06T07:26:39.381Z,99773.53
2023-05-06T07:29:07.264Z,99782.34
2023-05-06T07:31:35.252Z,99779.34
2023-05-06T07:34:03.223Z,99780.69
2023-05-06T07:36:36.059Z,99785.66
2023-05-06T07:39:04.905Z,99783.84
2023-05-06T07:41:32.809Z,99785.88
2023-05-06T07:44:02.142Z,99785.19
2023-05-06T07:46:30.682Z,99777.13
2023-05-06T07:48:58.749Z,99780.72
2023-05-06T07:51:27.152Z,99787.31
2023-05-06T07:53:55.027Z,99791.16
2023-05-06T07:56:22.963Z,99726.75
2023-05-06T07:58:50.896Z,99790.88
2023-05-06T08:01:20.176Z,99795.38
2023-05-06T08:03:48.173Z,99786.75
2023-05-06T08:06:16.107Z,99792.63
2023-05-06T08:08:44.043Z,99794.28
2023-05-06T08:11:11.960Z,99793.81
2023-05-06T08:13:39.935Z,99777.63
2023-05-06T08:16:08.557Z,99788.47
2023-05-06T08:18:37.924Z,99784.66
2023-05-06T08:21:06.520Z,99788.88
2023-05-06T08:23:34.512Z,99782.88
2023-05-06T08:26:02.503Z,99789.78
2023-05-06T08:28:30.467Z,99792.66
2023-05-06T08:30:58.375Z,99797.53
2023-05-06T08:33:26.407Z,99792.38
2023-05-06T08:35:57.588Z,99789.25
2023-05-06T08:38:26.761Z,99784.09
2023-05-06T08:40:55.348Z,99783.00
2023-05-06T08:43:27.232Z,99786.16
2023-05-06T08:45:56.128Z,99775.28
2023-05-06T08:48:24.163Z,99771.50
2023-05-06T08:50:53.101Z,99788.41
2023-05-06T08:53:23.097Z,99788.94
2023-05-06T08:55:53.562Z,99794.09
2023-05-06T08:58:24.554Z,99786.00
2023-05-06T09:00:52.674Z,99781.47
2023-05-06T09:03:20.910Z,99789.16
2023-05-06T09:05:49.086Z,99787.22
2023-05-06T09:08:17.066Z,99786.03
2023-05-06T09:10:47.377Z,99780.72
2023-05-06T09:13:17.295Z,99775.44
2023-05-06T09:15:47.378Z,99788.66
2023-05-06T09:18:15.753Z,99786.75
2023-05-06T09:20:45.493Z,99781.56
2023-05-06T09:23:15.251Z,99785.22
2023-05-06T09:25:44.504Z,99783.38
2023-05-06T09:28:15.325Z,99783.38
2023-05-06T09:30:44.857Z,99778.59
2023-05-06T09:33:13.302Z,99776.28
2023-05-06T09:35:43.203Z,99775.03
2023-05-06T09:38:11.988Z,99771.06
2023-05-06T09:40:40.496Z,99762.03
2023-05-06T09:43:08.973Z,99768.34
2023-05-06T09:45:38.572Z,99762.03
2023-05-06T09:48:09.535Z,99761.59
2023-05-06T09:50:37.972Z,99759.00
2023-05-06T09:53:06.716Z,99757.66
2023-05-06T09:55:34.829Z,99753.19
2023-05-06T09:58:04.788Z,99740.00
2023-05-06T10:00:33.098Z,99742.06
2023-05-06T10:03:03.733Z,99733.75
2023-05-06T10:05:33.267Z,99739.00
2023-05-06T10:08:04.341Z,99740.81
2023-05-06T10:10:34.607Z,99740.59
2023-05-06T10:13:04.483Z,99747.78
2023-05-06T10:15:33.744Z,99735.41
2023-05-06T10:18:04.359Z,99740.09
2023-05-06T10:20:35.212Z,99737.44
2023-05-06T10:23:10.959Z,99738.59
2023-05-06T10:25:40.741Z,99733.84
2023-05-06T10:28:17.221Z,99734.31
2023-05-06T10:30:53.050Z,99730.53
2023-05-06T10:33:25.990Z,99731.44
2023-05-06T10:35:59.448Z,99735.13
2023-05-06T10:38:32.196Z,99738.03
2023-05-06T10:41:00.524Z,99729.53
2023-05-06T10:43:30.947Z,99737.97
2023-05-06T10:46:04.126Z,99735.50
2023-05-06T10:48:34.083Z,99736.91
2023-05-06T10:51:27.349Z,99737.41
2023-05-06T10:54:23.047Z,99743.84
2023-05-06T10:57:11.997Z,99747.63
2023-05-06T10:59:46.674Z,99743.66
2023-05-06T11:02:15.619Z,99744.75
2023-05-06T11:04:51.337Z,99738.94
2023-05-06T11:07:24.722Z,99751.03
2023-05-06T11:09:56.938Z,99747.53
2023-05-06T11:12:46.122Z,99752.75
2023-05-06T11:15:21.748Z,99752.03
2023-05-06T11:17:49.682Z,99744.59
2023-05-06T11:20:23.851Z,99746.53
2023-05-06T11:22:51.913Z,99734.25
2023-05-06T11:25:41.914Z,99747.28
2023-05-06T11:28:11.081Z,99748.47
2023-05-06T11:30:42.310Z,99737.97
2023-05-06T11:33:14.894Z,99742.59
2023-05-06T11:35:44.252Z,99737.50
2023-05-06T11:38:12.214Z,99733.13
2023-05-06T11:40:42.594Z,99737.00
2023-05-06T11:43:14.475Z,99728.00
2023-05-06T11:45:43.647Z,99740.38
2023-05-06T11:48:13.360Z,99740.59
2023-05-06T11:50:47.670Z,99729.66
2023-05-06T11:53:18.955Z,99733.91
2023-05-06T11:55:48.083Z,99742.19
2023-05-06T11:58:16.731Z,99732.97
2023-05-06T12:00:51.409Z,99732.97
2023-05-06T12:03:19.854Z,99737.91
2023-05-06T12:05:49.920Z,99740.31
2023-05-06T12:08:27.511Z,99735.38
2023-05-06T12:10:58.860Z,99735.88
2023-05-06T12:13:27.801Z,99734.00
2023-05-06T12:15:56.692Z,99735.94
2023-05-06T12:18:26.024Z,99746.09
2023-05-06T12:20:56.545Z,99747.19
2023-05-06T12:23:24.593Z,99741.44
2023-05-06T12:26:02.639Z,99736.41
2023-05-06T12:28:32.122Z,99740.66
2023-05-06T12:31:00.028Z,99741.69
2023-05-06T12:33:27.970Z,99742.69
2023-05-06T12:36:07.808Z,99725.34
2023-05-06T12:38:35.687Z,99728.03
2023-05-06T12:41:04.387Z,99731.31
2023-05-06T12:43:32.735Z,99725.91
2023-05-06T12:46:07.499Z,99732.22
2023-05-06T12:48:35.896Z,99727.91
2023-05-06T12:53:57.731Z,99730.75
2023-05-06T12:56:25.777Z,99727.38
2023-05-06T12:59:00.890Z,99722.44
2023-05-06T13:01:28.913Z,99723.78
2023-05-06T13:03:58.306Z,99716.63
2023-05-06T13:06:26.232Z,99717.75
2023-05-06T13:08:54.190Z,99714.19
2023-05-06T13:11:25.737Z,99707.16
2023-05-06T13:13:53.734Z,99707.16
2023-05-06T13:16:21.696Z,99707.34
2023-05-06T13:18:50.598Z,99703.03
2023-05-06T13:21:18.560Z,99702.91
2023-05-06T13:23:48.060Z,99700.19
2023-05-06T13:26:17.391Z,99700.38
2023-05-06T13:28:46.664Z,99704.28
2023-05-06T13:31:14.637Z,99703.94
2023-05-06T13:33:42.557Z,99701.91
2023-05-06T13:36:10.955Z,99692.75
2023-05-06T13:38:39.319Z,99691.28
2023-05-06T13:41:09.304Z,99699.66
2023-05-06T13:43:37.178Z,99697.41
2023-05-06T13:46:06.559Z,99695.31
2023-05-06T13:48:34.543Z,99692.44
2023-05-06T13:51:02.653Z,99700.13
2023-05-06T13:53:30.779Z,99697.47
2023-05-06T13:55:58.654Z,99691.41
2023-05-06T13:58:26.789Z,99681.84
2023-05-06T14:00:54.701Z,99696.16
2023-05-06T14:03:23.942Z,99699.09
2023-05-06T14:05:51.955Z,99702.91
2023-05-06T14:08:19.894Z,99696.69
2023-05-06T14:10:47.980Z,99704.06
2023-05-06T14:13:15.888Z,99702.03
2023-05-06T14:15:43.835Z,99699.69
2023-05-06T14:18:11.811Z,99695.66
2023-05-06T14:20:41.098Z,99690.50
2023-05-06T14:23:09.450Z,99697.47
2023-05-06T14:25:37.408Z,99693.50
2023-05-06T14:28:05.510Z,99692.91
2023-05-06T14:30:34.363Z,99693.16
2023-05-06T14:33:02.394Z,99679.00
2023-05-06T14:35:30.432Z,99694.63
2023-05-06T14:37:59.760Z,99709.13
2023-05-06T14:40:27.952Z,99701.00
2023-05-06T14:42:55.887Z,99701.09
2023-05-06T14:45:23.877Z,99697.97
2023-05-06T14:47:51.919Z,99694.34
2023-05-06T14:50:19.852Z,99684.25
2023-05-06T14:52:48.243Z,99696.56
2023-05-06T14:55:17.775Z,99687.69
2023-05-06T14:57:45.641Z,99691.13
2023-05-06T15:00:14.954Z,99701.97
2023-05-06T15:02:43.021Z,99691.78
2023-05-06T15:05:12.309Z,99698.06
2023-05-06T15:07:40.564Z,99694.13
2023-05-06T15:10:09.042Z,99695.72
2023-05-06T15:12:38.356Z,99689.31
2023-05-06T15:15:07.690Z,99700.16
2023-05-06T15:17:35.596Z,99697.38
2023-05-06T15:20:04.445Z,99689.66
2023-05-06T15:22:32.334Z,99686.75
2023-05-06T15:25:00.538Z,99694.59
2023-05-06T15:27:28.447Z,99682.09
2023-05-06T15:29:57.742Z,99691.47
2023-05-06T15:32:26.149Z,99696.59
2023-05-06T15:34:54.186Z,99695.63
2023-05-06T15:37:22.308Z,99686.63
2023-05-06T15:39:50.382Z,99693.69
2023-05-06T15:42:18.275Z,99697.09
2023-05-06T15:44:47.984Z,99691.91
2023-05-06T15:47:17.326Z,99692.41
2023-05-06T15:49:54.047Z,99693.59
2023-05-06T15:52:22.945Z,99688.66
2023-05-06T15:54:50.934Z,99687.13
2023-05-06T15:57:19.189Z,99690.03
2023-05-06T15:59:47.100Z,99701.53
2023-05-06T16:02:26.683Z,99691.09
2023-05-06T16:04:56.464Z,99691.94
2023-05-06T16:07:24.523Z,99691.53
2023-05-06T16:09:52.390Z,99691.53
2023-05-06T16:12:20.396Z,99696.47
2023-05-06T16:14:48.326Z,99687.88
2023-05-06T16:17:16.822Z,99687.94
2023-05-06T16:19:44.679Z,99677.28
2023-05-06T16:22:13.948Z,99685.34
2023-05-06T16:24:41.813Z,99684.91
2023-05-06T16:27:09.706Z,99683.06
2023-05-06T16:29:37.625Z,99686.28
2023-05-06T16:32:06.020Z,99694.88
2023-05-06T16:34:33.883Z,99696.84
2023-05-06T16:37:01.795Z,99682.41
2023-05-06T16:39:31.064Z,99698.59
2023-05-06T16:41:58.956Z,99701.34
2023-05-06T16:44:27.072Z,99689.56
2023-05-06T16:46:55.117Z,99685.44
2023-05-06T16:49:23.121Z,99700.81
2023-05-06T16:51:51.028Z,99700.56
2023-05-06T16:54:18.946Z,99705.03
2023-05-06T16:56:51.999Z,99709.53
2023-05-06T16:59:22.261Z,99684.19
2023-05-06T17:01:50.766Z,99717.25
2023-05-06T17:04:18.749Z,99695.16
2023-05-06T17:06:46.682Z,99721.63
2023-05-06T17:09:14.511Z,99720.81
2023-05-06T17:11:42.664Z,99714.41
2023-05-06T17:14:12.235Z,99719.72
2023-05-06T17:16:40.410Z,99725.28
2023-05-06T17:19:08.412Z,99724.22
2023-05-06T17:21:36.436Z,99732.91
2023-05-06T17:24:04.621Z,99730.91
2023-05-06T17:26:33.275Z,99738.50
2023-05-06T17:29:01.415Z,99735.94
2023-05-06T17:31:30.822Z,99741.69
2023-05-06T17:33:58.744Z,99746.56
2023-05-06T17:36:26.653Z,99737.00
2023-05-06T17:39:02.710Z,99747.72
2023-05-06T17:41:30.677Z,99747.44
2023-05-06T17:43:58.602Z,99749.09
2023-05-06T17:46:26.773Z,99751.28
2023-05-06T17:48:56.021Z,99748.59
2023-05-06T17:51:23.923Z,99750.34
2023-05-06T17:53:51.887Z,99724.44
2023-05-06T17:56:20.284Z,99759.69
2023-05-06T17:58:48.692Z,99755.09
2023-05-06T18:01:16.699Z,99767.75
2023-05-06T18:03:44.981Z,99773.19
2023-05-06T18:06:14.402Z,99782.31
2023-05-06T18:08:42.377Z,99785.47
2023-05-06T18:11:11.047Z,99788.97
2023-05-06T18:13:39.125Z,99793.47
2023-05-06T18:16:07.693Z,99784.75
2023-05-06T18:18:35.736Z,99788.41
2023-05-06T18:21:03.630Z,99788.09
2023-05-06T18:23:33.276Z,99788.59
2023-05-06T18:26:01.247Z,99795.41
2023-05-06T18:28:29.110Z,99791.59
2023-05-06T18:30:57.014Z,99793.56
2023-05-06T18:33:24.968Z,99793.41
2023-05-06T18:35:52.947Z,99800.13
2023-05-06T18:38:21.046Z,99797.28
2023-05-06T18:40:50.348Z,99809.97
2023-05-06T18:43:18.233Z,99805.22
2023-05-06T18:45:46.120Z,99811.53
2023-05-06T18:48:14.053Z,99820.19
2023-05-06T18:50:42.907Z,99808.44
2023-05-06T18:53:10.855Z,99818.88
2023-05-06T18:55:38.748Z,99819.22
2023-05-06T18:58:08.035Z,99824.88
2023-05-06T19:00:36.052Z,99800.28
2023-05-06T19:03:03.948Z,99825.19
2023-05-06T19:05:31.980Z,99829.84
2023-05-06T19:07:59.933Z,99821.97
2023-05-06T19:10:27.836Z,99825.94
2023-05-06T19:12:55.920Z,99828.63
2023-05-06T19:15:25.212Z,99835.28
2023-05-06T19:17:53.114Z,99834.28
2023-05-06T19:20:21.151Z,99834.94
2023-05-06T19:22:49.119Z,99833.63
2023-05-06T19:25:17.268Z,99832.78
2023-05-06T19:27:45.368Z,99829.66
2023-05-06T19:30:13.424Z,99839.25
2023-05-06T19:32:44.532Z,99841.41
2023-05-06T19:35:13.149Z,99838.28
2023-05-06T19:37:41.140Z,99843.88
2023-05-06T19:40:10.169Z,99839.25
2023-05-06T19:42:38.028Z,99843.19
2023-05-06T19:45:08.581Z,99841.94
2023-05-06T19:47:36.629Z,99846.25
2023-05-06T19:50:07.360Z,99850.56
2023-05-06T19:52:35.478Z,99849.91
2023-05-06T19:55:03.468Z,99845.09
2023-05-06T19:57:31.897Z,99853.84
2023-05-06T20:00:00.497Z,99837.66
2023-05-06T20:02:28.550Z,99849.88
2023-05-06T20:04:56.507Z,99850.56
2023-05-06T20:07:25.738Z,99850.19
2023-05-06T20:09:55.491Z,99853.88
2023-05-06T20:12:23.537Z,99854.19
2023-05-06T20:14:51.569Z,99858.00
2023-05-06T20:17:19.584Z,99862.78
2023-05-06T20:19:47.942Z,99863.97
2023-05-06T20:22:16.085Z,99866.09
2023-05-06T20:24:45.860Z,99872.88
2023-05-06T20:27:13.707Z,99866.75
2023-05-06T20:29:42.604Z,99864.09
2023-05-06T20:32:10.561Z,99869.56
2023-05-06T20:34:38.532Z,99870.72
2023-05-06T20:37:06.777Z,99840.75
2023-05-06T20:39:34.813Z,99882.63
2023-05-06T20:42:04.160Z,99884.25
2023-05-06T20:44:32.068Z,99882.00
2023-05-06T20:46:59.931Z,99879.34
2023-05-06T20:49:27.841Z,99887.25
2023-05-06T20:51:56.136Z,99886.13
2023-05-06T20:54:24.124Z,99892.28
2023-05-06T20:56:52.051Z,99883.38
2023-05-06T20:59:21.874Z,99890.13
2023-05-06T21:01:49.812Z,99892.09
2023-05-06T21:04:17.867Z,99889.66
2023-05-06T21:06:46.401Z,99890.66
2023-05-06T21:09:14.416Z,99901.09
2023-05-06T21:11:42.373Z,99908.69
2023-05-06T21:14:10.305Z,99891.78
2023-05-06T21:16:40.648Z,99904.53
2023-05-06T21:19:08.682Z,99907.19
2023-05-06T21:21:36.716Z,99906.72
2023-05-06T21:24:04.937Z,99916.63
2023-05-06T21:26:33.818Z,99925.00
2023-05-06T21:29:01.754Z,99920.75
2023-05-06T21:31:30.346Z,99918.50
2023-05-06T21:34:00.283Z,99926.00
2023-05-06T21:36:28.283Z,99929.56
2023-05-06T21:39:09.213Z,99932.09
2023-05-06T21:41:37.548Z,99937.47
2023-05-06T21:44:06.905Z,99938.44
2023-05-06T21:46:35.166Z,99938.75
2023-05-06T21:49:04.819Z,99944.50
2023-05-06T21:51:34.419Z,99931.63
2023-05-06T21:54:02.587Z,99947.91
2023-05-06T21:56:30.593Z,99951.75
2023-05-06T21:58:58.494Z,99960.13
2023-05-06T22:01:27.053Z,99957.41
2023-05-06T22:03:55.647Z,99957.94
2023-05-06T22:06:25.132Z,99958.41
2023-05-06T22:08:53.385Z,99961.66
2023-05-06T22:11:22.678Z,99967.59
2023-05-06T22:13:50.537Z,99972.94
2023-05-06T22:16:18.530Z,99976.47
2023-05-06T22:18:46.565Z,99979.13
2023-05-06T22:21:14.482Z,99974.16
2023-05-06T22:23:43.725Z,99970.78
2023-05-06T22:26:12.124Z,99978.06
2023-05-06T22:28:40.064Z,99982.75
2023-05-06T22:31:08.047Z,99973.59
2023-05-06T22:33:35.974Z,99979.41
2023-05-06T22:36:03.930Z,99971.34
2023-05-06T22:38:31.896Z,99980.22
2023-05-06T22:41:01.085Z,99980.16
2023-05-06T22:43:28.946Z,99959.59
2023-05-06T22:45:56.971Z,99980.31
2023-05-06T22:48:25.206Z,99971.19
2023-05-06T22:50:53.796Z,99980.88
2023-05-06T22:53:21.734Z,99986.34
2023-05-06T22:55:49.659Z,99981.69
2023-05-06T22:58:18.975Z,99976.44
2023-05-06T23:00:47.968Z,99992.25
2023-05-06T23:03:17.985Z,99991.44
2023-05-06T23:05:45.982Z,99988.94
2023-05-06T23:08:13.973Z,99987.56
2023-05-06T23:10:41.950Z,99987.56
2023-05-06T23:13:10.075Z,99966.69
2023-05-06T23:15:39.452Z,99977.09
2023-05-06T23:18:07.828Z,99980.84
2023-05-06T23:20:35.873Z,99974.66
2023-05-06T23:23:03.764Z,99983.19
2023-05-06T23:25:31.691Z,99977.56
2023-05-06T23:27:59.535Z,99982.53
2023-05-06T23:30:27.590Z,99983.34
2023-05-06T23:32:56.897Z,99978.38
2023-05-06T23:35:24.840Z,99975.63
2023-05-06T23:37:52.779Z,99975.75
2023-05-06T23:40:20.845Z,99971.72
2023-05-06T23:42:48.777Z,99964.94
2023-05-06T23:45:16.801Z,99964.53
2023-05-06T23:47:44.717Z,99963.28
2023-05-06T23:50:14.419Z,99960.78
2023-05-06T23:52:42.576Z,99961.47
2023-05-06T23:55:11.204Z,99963.44
2023-05-06T23:57:39.361Z,99963.44
